Messwerte Laghouat

Temperatur

Temperatur
°C
1594188000 7.00 7.00 23
1594191600 8.00 8.00
1594195200 9.00 9.00 31
1594198800 10.00 10.00
1594202400 11.00 11.00
1594206000 12.00 12.00
1594209600 13.00 13.00 36
1594213200 14.00 14.00 37
1594216800 15.00 15.00 38
1594220400 16.00 16.00 37
1594224000 17.00 17.00 37
1594227600 18.00 18.00 37
1594231200 19.00 19.00 36
1594234800 20.00 20.00 35
1594238400 21.00 21.00 33
1594242000 22.00 22.00 30
1594245600 23.00 23.00 28
1594249200 0.00 0.00 27
1594252800 1.00 1.00 26
1594256400 2.00 2.00 25
1594260000 3.00 3.00
1594263600 4.00 4.00
1594267200 5.00 5.00 22
1594270800 6.00 6.00 24

Aktuellste Messwerte

Wettercharakter
Wetter: recht sonnig
Temperatur
24 °C
Feuchtigkeit
35 %
Wind
0 km/h, -
Luftdruck
1019 hPa
Messzeit: 9. Juli 2020, 6.00Datenquelle: METAR

Weitere Messstationen in der Nähe

Messstation Temperatur Entfernung
Tilrempt/Hassi R'mel - 100 km
Ghardaia 25 °C 172 km
El-Bayadh 23 °C 179 km
Bou-Saada - 209 km
Tiaret 20 °C 221 km
Biskra 28 °C 281 km
Mecheria 24 °C 298 km

Wind

Windrichtung Böen Mittelwind
° km/h km/h
1594188000 7.00 6.00 - 7.00 0
1594191600 8.00 7.00 - 8.00
1594195200 9.00 8.00 - 9.00 0
1594198800 10.00 9.00 - 10.00
1594202400 11.00 10.00 - 11.00
1594206000 12.00 11.00 - 12.00
1594209600 13.00 12.00 - 13.00 0
1594213200 14.00 13.00 - 14.00 0
1594216800 15.00 14.00 - 15.00 0
1594220400 16.00 15.00 - 16.00 180° 15
1594224000 17.00 16.00 - 17.00 0
1594227600 18.00 17.00 - 18.00 150° 20
1594231200 19.00 18.00 - 19.00 140° 20
1594234800 20.00 19.00 - 20.00 120° 20
1594238400 21.00 20.00 - 21.00 140° 15
1594242000 22.00 21.00 - 22.00 0
1594245600 23.00 22.00 - 23.00 0
1594249200 0.00 23.00 - 0.00 0
1594252800 1.00 0.00 - 1.00 0
1594256400 2.00 1.00 - 2.00 0
1594260000 3.00 2.00 - 3.00
1594263600 4.00 3.00 - 4.00
1594267200 5.00 4.00 - 5.00 0
1594270800 6.00 5.00 - 6.00 0

Ihre Wetterstation

Fehlt Ihre Wetterstation auf unserem Portal?

Schreiben Sie an network@meteonews.ch

Klima

Wann ist es am wärmsten? Wann regnet es am wenigsten? Unsere Klimadaten geben Auskunft.